Kaleen Mc Allister — WDB3847 — position and weather

sailwx.info

Track history (hours):
 
Tides and Currents Weather Stations Pressure Air Temp Water Temp Dewpoint Dewpoint Depression Visibility Wind Speed Wind Dir Waves Ship Positions

Kaleen Mc Allister

Owner: MC ALLISTER TOWING & TRANSPORTATION INC, NEW YORK, NY. More information available from US FCC via Universal Licensing System and Coast Guard Vessel Documentation Center.

Last reported at 2016-Jul-01 21:33 UTC. Time now 2016-Jul-01 22:36 UTC.
Position N 39°16' W 076°35'.

Length 31 m; draft 4 m.

Type: Tug. MMSI: 366891960.

Date/timePositionNaut miles runAvg speedWind from/ knotsBaromVisibWave heightAir tempDewpointWater temp
2016-Jul-01 21:33N 39°16' W 076°35'0 0.0
2016-Jul-01 20:33N 39°16' W 076°35'0 0.0
2016-Jul-01 19:33N 39°16' W 076°35'0 0.0
2016-Jul-01 18:32N 39°16' W 076°35'0 0.0
2016-Jul-01 17:30N 39°16' W 076°35'0 0.0
2016-Jul-01 16:33N 39°16' W 076°35'1 1.2
2016-Jul-01 15:33N 39°15' W 076°35'1 1.1
2016-Jul-01 14:34N 39°15' W 076°33'2 2.0
2016-Jul-01 13:33N 39°16' W 076°35'0 0.0
2016-Jul-01 12:32N 39°16' W 076°35'0 0.0
2016-Jul-01 11:33N 39°16' W 076°35'0 0.0
2016-Jul-01 10:33N 39°16' W 076°35'0 0.0
2016-Jul-01 09:33N 39°16' W 076°35'0 0.0
2016-Jul-01 08:30N 39°16' W 076°35'3 2.9
2016-Jul-01 07:34N 39°14' W 076°32'1 1.1
2016-Jul-01 06:34N 39°15' W 076°33'2 0.8
2016-Jul-01 04:25N 39°16' W 076°35'0 0.0
2016-Jul-01 03:30N 39°16' W 076°35'3 3.5
2016-Jul-01 02:33N 39°13' W 076°35'2 1.6
2016-Jul-01 01:34N 39°14' W 076°33'3 2.5
2016-Jul-01 00:30N 39°16' W 076°35'2 2.1
2016-Jun-30 23:32N 39°15' W 076°33'1 0.5
2016-Jun-30 21:31N 39°14' W 076°31'0 0.1
2016-Jun-30 20:33N 39°14' W 076°32'0 0.0
2016-Jun-30 19:33N 39°14' W 076°32'3 2.9
2016-Jun-30 18:30N 39°16' W 076°35'0 0.0
2016-Jun-30 16:20N 39°16' W 076°35'0 0.0
2016-Jun-30 15:25N 39°16' W 076°35'0 0.0
2016-Jun-30 14:25N 39°16' W 076°35'0 0.0
2016-Jun-30 13:32N 39°16' W 076°35'0 0.0
2016-Jun-30 12:33N 39°16' W 076°35'0 0.0
2016-Jun-30 11:33N 39°16' W 076°35'1 0.8
2016-Jun-30 10:33N 39°15' W 076°35'2 2.4
2016-Jun-30 09:33N 39°14' W 076°32'3 2.9
2016-Jun-30 08:34N 39°16' W 076°35'0 0.1
2016-Jun-30 07:34N 39°16' W 076°35'0 0.0
2016-Jun-30 06:34N 39°16' W 076°35'0 0.0
2016-Jun-30 05:33N 39°16' W 076°35'0 0.0
2016-Jun-30 04:34N 39°16' W 076°35'0 0.0
2016-Jun-30 03:34N 39°16' W 076°35'0 0.0
2016-Jun-30 02:34N 39°16' W 076°35'0 0.0
2016-Jun-30 01:33N 39°16' W 076°35'0 0.0
2016-Jun-30 00:33N 39°16' W 076°35'3 2.9
2016-Jun-29 23:30N 39°14' W 076°32'1 0.8
2016-Jun-29 22:29N 39°14' W 076°32'3 3.1
2016-Jun-29 21:34N 39°16' W 076°35'0 0.0
2016-Jun-29 20:33N 39°16' W 076°35'0 0.0
2016-Jun-29 19:32N 39°16' W 076°35'0 0.0
2016-Jun-29 18:33N 39°16' W 076°35'2 0.7
2016-Jun-29 15:33N 39°14' W 076°33'2 2.2
2016-Jun-29 14:33N 39°16' W 076°35'0 0.0
2016-Jun-29 13:32N 39°16' W 076°35'0 0.0
2016-Jun-29 12:33N 39°16' W 076°35'0 0.0
2016-Jun-29 11:33N 39°16' W 076°35'2 2.2
2016-Jun-29 10:33N 39°15' W 076°33'1 1.3
2016-Jun-29 09:25N 39°13' W 076°32'4 4.1
2016-Jun-29 08:33N 39°16' W 076°35'0 0.0
2016-Jun-29 07:34N 39°16' W 076°35'0 0.0
2016-Jun-29 06:33N 39°16' W 076°35'0 0.0
2016-Jun-29 05:33N 39°16' W 076°35'0 0.0
2016-Jun-29 04:33N 39°16' W 076°35'0 0.0
2016-Jun-29 03:33N 39°16' W 076°35'0 0.0
2016-Jun-29 02:33N 39°16' W 076°35'0 0.0
2016-Jun-29 01:34N 39°16' W 076°35'2 1.7
2016-Jun-29 00:33N 39°15' W 076°33'2 1.7
2016-Jun-28 23:34N 39°13' W 076°32'3 2.7
2016-Jun-28 22:22N 39°16' W 076°35'0 0.0
2016-Jun-28 21:33N 39°16' W 076°35'0 0.0
2016-Jun-28 20:33N 39°16' W 076°35'0 0.0
2016-Jun-28 19:30N 39°16' W 076°35'2 2.3
2016-Jun-28 18:30N 39°14' W 076°33'4 3.7
2016-Jun-28 17:31N 39°13' W 076°29'2 2.0
2016-Jun-28 16:34N 39°12' W 076°31'5 4.4
2016-Jun-28 15:31N 39°16' W 076°35'0 0.0
2016-Jun-28 14:33N 39°16' W 076°35'0 0.0
2016-Jun-28 13:33N 39°16' W 076°35'0 0.0
2016-Jun-28 12:34N 39°16' W 076°35'0 0.0
2016-Jun-28 11:34N 39°16' W 076°35'0 0.0
2016-Jun-28 10:33N 39°16' W 076°35'0 0.0
2016-Jun-28 09:33N 39°16' W 076°35'0 0.0
2016-Jun-28 08:33N 39°16' W 076°35'0 0.0
2016-Jun-28 07:33N 39°16' W 076°35'0 0.0
2016-Jun-28 06:34N 39°16' W 076°35'0 0.0
2016-Jun-28 04:33N 39°16' W 076°35'2 1.7
2016-Jun-28 03:33N 39°15' W 076°33'2 1.7
2016-Jun-28 02:33N 39°16' W 076°35'0 0.0
2016-Jun-28 01:34N 39°16' W 076°35'0 0.0
2016-Jun-28 00:34N 39°16' W 076°35'0 0.0
2016-Jun-27 23:33N 39°16' W 076°35'0 0.0
2016-Jun-27 22:34N 39°16' W 076°35'0 0.1
2016-Jun-27 21:34N 39°16' W 076°35'0 0.0
2016-Jun-27 20:33N 39°16' W 076°35'0 0.0
2016-Jun-27 19:33N 39°16' W 076°35'0 0.0
2016-Jun-27 18:34N 39°16' W 076°35'0 0.0
2016-Jun-27 17:34N 39°16' W 076°35'0 0.0
2016-Jun-27 16:34N 39°16' W 076°35'0 0.0
2016-Jun-27 15:34N 39°16' W 076°35'0 0.0
2016-Jun-27 14:33N 39°16' W 076°35'0 0.0
2016-Jun-27 13:33N 39°16' W 076°35'0 0.0
2016-Jun-27 12:34N 39°16' W 076°35'0 0.0
2016-Jun-27 11:33N 39°16' W 076°35'0 0.0
2016-Jun-27 10:34N 39°16' W 076°35'0 0.0
2016-Jun-27 09:34N 39°16' W 076°35'0 0.0
2016-Jun-27 08:33N 39°16' W 076°35'0 0.0
2016-Jun-27 07:34N 39°16' W 076°35'0 0.0
2016-Jun-27 06:34N 39°16' W 076°35'0 0.0
2016-Jun-27 05:33N 39°16' W 076°35'0 0.0
2016-Jun-27 04:34N 39°16' W 076°35'0 0.0
2016-Jun-27 03:34N 39°16' W 076°35'2 1.9
2016-Jun-27 02:33N 39°15' W 076°33'1 0.8
2016-Jun-27 01:33N 39°14' W 076°32'0 0.3
2016-Jun-27 00:34N 39°15' W 076°32'2 1.9
2016-Jun-26 23:33N 39°15' W 076°35'1 1.0
2016-Jun-26 22:30N 39°16' W 076°35'0 0.0
2016-Jun-26 21:33N 39°16' W 076°35'0 0.0
2016-Jun-26 20:30N 39°16' W 076°35'0 0.0
2016-Jun-26 19:30N 39°16' W 076°35'0 0.0
2016-Jun-26 18:30N 39°16' W 076°35'0 0.0
2016-Jun-26 16:20N 39°16' W 076°35'0 0.0
2016-Jun-26 15:30N 39°16' W 076°35'0 0.0
2016-Jun-26 14:20N 39°16' W 076°35'0 0.0
2016-Jun-26 13:33N 39°16' W 076°35'1 1.0
2016-Jun-26 12:34N 39°15' W 076°35'3 2.6
2016-Jun-26 11:32N 39°13' W 076°32'4 3.6
2016-Jun-26 10:33N 39°16' W 076°35'0 0.0
2016-Jun-26 09:33N 39°16' W 076°35'0 0.0
2016-Jun-26 08:33N 39°16' W 076°35'0 0.0
2016-Jun-26 07:33N 39°16' W 076°35'0 0.0
2016-Jun-26 06:33N 39°16' W 076°35'0 0.0
2016-Jun-26 05:33N 39°16' W 076°35'0 0.0
2016-Jun-26 04:33N 39°16' W 076°35'0 0.0
2016-Jun-26 03:32N 39°16' W 076°35'0 0.0
2016-Jun-26 02:31N 39°16' W 076°35'0 0.0
2016-Jun-26 01:31N 39°16' W 076°35'0 0.0
2016-Jun-26 00:30N 39°16' W 076°35'0 0.0
2016-Jun-25 23:30N 39°16' W 076°35'6 6.8
2016-Jun-25 22:34N 39°12' W 076°29'3 3.1
2016-Jun-25 21:34N 39°14' W 076°32'3 3.1
2016-Jun-25 20:30N 39°16' W 076°35'0 0.0
2016-Jun-25 19:30N 39°16' W 076°35'0 0.0
2016-Jun-25 18:30N 39°16' W 076°35'0 0.0
2016-Jun-25 17:25N 39°16' W 076°35'0 0.0
2016-Jun-25 16:30N 39°16' W 076°35'0 0.0
2016-Jun-25 14:30N 39°16' W 076°35'0 0.0
2016-Jun-25 13:30N 39°16' W 076°35'0 0.0
2016-Jun-25 12:26N 39°16' W 076°35'0 0.0
2016-Jun-25 11:33N 39°16' W 076°35'0 0.0
2016-Jun-25 10:30N 39°16' W 076°35'0 0.0
2016-Jun-25 09:33N 39°16' W 076°35'1 1.0
2016-Jun-25 08:33N 39°15' W 076°34'1 1.0
2016-Jun-25 07:30N 39°16' W 076°35'0 0.0
2016-Jun-25 06:30N 39°16' W 076°35'0 0.0
2016-Jun-25 05:33N 39°16' W 076°35'0 0.0
2016-Jun-25 04:33N 39°16' W 076°35'0 0.0
2016-Jun-25 03:32N 39°16' W 076°35'0 0.0
2016-Jun-25 02:30N 39°16' W 076°35'0 0.0
2016-Jun-25 01:26N 39°16' W 076°35'2 2.1
2016-Jun-25 00:33N 39°15' W 076°34'2 1.7
2016-Jun-24 23:30N 39°16' W 076°35'0 0.0
2016-Jun-24 22:30N 39°16' W 076°35'0 0.0
2016-Jun-24 21:30N 39°16' W 076°35'0 0.0
2016-Jun-24 20:30N 39°16' W 076°35'0 0.0
2016-Jun-24 19:31N 39°16' W 076°35'4 4.0
2016-Jun-24 18:33N 39°13' W 076°32'4 3.8
2016-Jun-24 17:33N 39°16' W 076°35'0 0.0
2016-Jun-24 16:25N 39°16' W 076°35'0 0.0
2016-Jun-24 15:25N 39°16' W 076°35'0 0.0
2016-Jun-24 14:25N 39°16' W 076°35'0 0.0
2016-Jun-24 13:30N 39°16' W 076°35'0 0.0
2016-Jun-24 12:30N 39°16' W 076°35'4 4.0
2016-Jun-24 11:33N 39°13' W 076°32'3 2.6
2016-Jun-24 10:34N 39°12' W 076°29'6 6.3
2016-Jun-24 09:33N 39°16' W 076°35'0 0.0
2016-Jun-24 08:34N 39°16' W 076°35'0 0.0
2016-Jun-24 07:34N 39°16' W 076°35'0 0.0
2016-Jun-24 04:20N 39°16' W 076°35'0 0.0
2016-Jun-24 03:29N 39°16' W 076°35'0 0.0
2016-Jun-24 02:33N 39°16' W 076°35'0 0.0
2016-Jun-24 01:33N 39°16' W 076°35'0 0.0
2016-Jun-24 00:34N 39°16' W 076°35'1 0.8
2016-Jun-23 23:33N 39°17' W 076°36'0 0.2
2016-Jun-23 22:34N 39°16' W 076°36'0 0.0
2016-Jun-23 21:34N 39°16' W 076°36'0 0.0
2016-Jun-23 20:33N 39°16' W 076°36'0 0.0
2016-Jun-23 19:33N 39°16' W 076°36'0 0.0
2016-Jun-23 18:34N 39°16' W 076°36'0 0.0
2016-Jun-23 17:33N 39°16' W 076°36'0 0.0
2016-Jun-23 16:34N 39°16' W 076°36'0 0.0
2016-Jun-23 15:33N 39°16' W 076°36'0 0.0
2016-Jun-23 14:34N 39°16' W 076°36'0 0.0
2016-Jun-23 13:34N 39°16' W 076°36'0 0.0
2016-Jun-23 12:34N 39°16' W 076°36'1 0.9
2016-Jun-23 11:31N 39°16' W 076°35'4 3.8
2016-Jun-23 10:33N 39°13' W 076°35'1 1.2
2016-Jun-23 09:31N 39°13' W 076°34'1 1.5
2016-Jun-23 08:33N 39°13' W 076°32'3 3.5
2016-Jun-23 07:34N 39°16' W 076°34'1 0.3
2016-Jun-23 05:23N 39°16' W 076°35'0 0.0
2016-Jun-23 04:33N 39°16' W 076°35'0 0.0
2016-Jun-23 03:34N 39°16' W 076°35'0 0.0
2016-Jun-23 02:33N 39°16' W 076°35'0 0.0
2016-Jun-23 01:33N 39°16' W 076°35'0 0.0
2016-Jun-23 00:34N 39°16' W 076°35'0 0.0
2016-Jun-22 23:33N 39°16' W 076°35'0 0.0
2016-Jun-22 22:31N 39°16' W 076°35'0 0.0
2016-Jun-22 21:23N 39°16' W 076°35'0 0.0
2016-Jun-22 20:33N 39°16' W 076°35'0 0.0
2016-Jun-22 19:33N 39°16' W 076°35'0 0.0
2016-Jun-22 18:33N 39°16' W 076°35'0 0.0
2016-Jun-22 17:32N 39°16' W 076°35'0 0.0
2016-Jun-22 16:30N 39°16' W 076°35'0 0.0
2016-Jun-22 15:31N 39°16' W 076°35'0 0.0
2016-Jun-22 14:30N 39°16' W 076°35'0 0.0
2016-Jun-22 13:33N 39°16' W 076°35'1 0.9
2016-Jun-22 12:33N 39°16' W 076°36'1 0.9
2016-Jun-22 11:33N 39°16' W 076°35'0 0.0
2016-Jun-22 10:33N 39°16' W 076°35'0 0.0
2016-Jun-22 09:33N 39°16' W 076°35'0 0.0
2016-Jun-22 08:33N 39°16' W 076°35'0 0.0
2016-Jun-22 07:33N 39°16' W 076°35'0 0.0
2016-Jun-22 06:33N 39°16' W 076°35'0 0.0
2016-Jun-22 05:33N 39°16' W 076°35'0 0.0
2016-Jun-22 04:33N 39°16' W 076°35'0 0.0
2016-Jun-22 03:33N 39°16' W 076°35'0 0.0
2016-Jun-22 02:33N 39°16' W 076°35'1 1.3
2016-Jun-22 01:31N 39°15' W 076°33'0 0.2
2016-Jun-22 00:08N 39°15' W 076°33'0 0.0
2016-Jun-21 23:34N 39°15' W 076°33'1 0.7
2016-Jun-21 22:30N 39°15' W 076°34'2 1.8
2016-Jun-21 21:33N 39°16' W 076°35'  
Track history (hours):
 
Tides and Currents Weather Stations Pressure Air Temp Water Temp Dewpoint Dewpoint Depression Visibility Wind Speed Wind Dir Waves Ship Positions

Kaleen Mc Allister

Owner: MC ALLISTER TOWING & TRANSPORTATION INC, NEW YORK, NY. More information available from US FCC via Universal Licensing System and Coast Guard Vessel Documentation Center.

Last reported at 2016-Jul-01 21:33 UTC. Time now 2016-Jul-01 22:36 UTC.
Position N 39°16' W 076°35'.

Length 31 m; draft 4 m.

Type: Tug. MMSI: 366891960.

Date/timePositionNaut miles runAvg speedWind from/ knotsBaromVisibWave heightAir tempDewpointWater temp
2016-Jul-01 21:33N 39°16' W 076°35'0 0.0
2016-Jul-01 20:33N 39°16' W 076°35'0 0.0
2016-Jul-01 19:33N 39°16' W 076°35'0 0.0
2016-Jul-01 18:32N 39°16' W 076°35'0 0.0
2016-Jul-01 17:30N 39°16' W 076°35'0 0.0
2016-Jul-01 16:33N 39°16' W 076°35'1 1.2
2016-Jul-01 15:33N 39°15' W 076°35'1 1.1
2016-Jul-01 14:34N 39°15' W 076°33'2 2.0
2016-Jul-01 13:33N 39°16' W 076°35'0 0.0
2016-Jul-01 12:32N 39°16' W 076°35'0 0.0
2016-Jul-01 11:33N 39°16' W 076°35'0 0.0
2016-Jul-01 10:33N 39°16' W 076°35'0 0.0
2016-Jul-01 09:33N 39°16' W 076°35'0 0.0
2016-Jul-01 08:30N 39°16' W 076°35'3 2.9
2016-Jul-01 07:34N 39°14' W 076°32'1 1.1
2016-Jul-01 06:34N 39°15' W 076°33'2 0.8
2016-Jul-01 04:25N 39°16' W 076°35'0 0.0
2016-Jul-01 03:30N 39°16' W 076°35'3 3.5
2016-Jul-01 02:33N 39°13' W 076°35'2 1.6
2016-Jul-01 01:34N 39°14' W 076°33'3 2.5
2016-Jul-01 00:30N 39°16' W 076°35'2 2.1
2016-Jun-30 23:32N 39°15' W 076°33'1 0.5
2016-Jun-30 21:31N 39°14' W 076°31'0 0.1
2016-Jun-30 20:33N 39°14' W 076°32'0 0.0
2016-Jun-30 19:33N 39°14' W 076°32'3 2.9
2016-Jun-30 18:30N 39°16' W 076°35'0 0.0
2016-Jun-30 16:20N 39°16' W 076°35'0 0.0
2016-Jun-30 15:25N 39°16' W 076°35'0 0.0
2016-Jun-30 14:25N 39°16' W 076°35'0 0.0
2016-Jun-30 13:32N 39°16' W 076°35'0 0.0
2016-Jun-30 12:33N 39°16' W 076°35'0 0.0
2016-Jun-30 11:33N 39°16' W 076°35'1 0.8
2016-Jun-30 10:33N 39°15' W 076°35'2 2.4
2016-Jun-30 09:33N 39°14' W 076°32'3 2.9
2016-Jun-30 08:34N 39°16' W 076°35'0 0.1
2016-Jun-30 07:34N 39°16' W 076°35'0 0.0
2016-Jun-30 06:34N 39°16' W 076°35'0 0.0
2016-Jun-30 05:33N 39°16' W 076°35'0 0.0
2016-Jun-30 04:34N 39°16' W 076°35'0 0.0
2016-Jun-30 03:34N 39°16' W 076°35'0 0.0
2016-Jun-30 02:34N 39°16' W 076°35'0 0.0
2016-Jun-30 01:33N 39°16' W 076°35'0 0.0
2016-Jun-30 00:33N 39°16' W 076°35'3 2.9
2016-Jun-29 23:30N 39°14' W 076°32'1 0.8
2016-Jun-29 22:29N 39°14' W 076°32'3 3.1
2016-Jun-29 21:34N 39°16' W 076°35'0 0.0
2016-Jun-29 20:33N 39°16' W 076°35'0 0.0
2016-Jun-29 19:32N 39°16' W 076°35'0 0.0
2016-Jun-29 18:33N 39°16' W 076°35'2 0.7
2016-Jun-29 15:33N 39°14' W 076°33'2 2.2
2016-Jun-29 14:33N 39°16' W 076°35'0 0.0
2016-Jun-29 13:32N 39°16' W 076°35'0 0.0
2016-Jun-29 12:33N 39°16' W 076°35'0 0.0
2016-Jun-29 11:33N 39°16' W 076°35'2 2.2
2016-Jun-29 10:33N 39°15' W 076°33'1 1.3
2016-Jun-29 09:25N 39°13' W 076°32'4 4.1
2016-Jun-29 08:33N 39°16' W 076°35'0 0.0
2016-Jun-29 07:34N 39°16' W 076°35'0 0.0
2016-Jun-29 06:33N 39°16' W 076°35'0 0.0
2016-Jun-29 05:33N 39°16' W 076°35'0 0.0
2016-Jun-29 04:33N 39°16' W 076°35'0 0.0
2016-Jun-29 03:33N 39°16' W 076°35'0 0.0
2016-Jun-29 02:33N 39°16' W 076°35'0 0.0
2016-Jun-29 01:34N 39°16' W 076°35'2 1.7
2016-Jun-29 00:33N 39°15' W 076°33'2 1.7
2016-Jun-28 23:34N 39°13' W 076°32'3 2.7
2016-Jun-28 22:22N 39°16' W 076°35'0 0.0
2016-Jun-28 21:33N 39°16' W 076°35'0 0.0
2016-Jun-28 20:33N 39°16' W 076°35'0 0.0
2016-Jun-28 19:30N 39°16' W 076°35'2 2.3
2016-Jun-28 18:30N 39°14' W 076°33'4 3.7
2016-Jun-28 17:31N 39°13' W 076°29'2 2.0
2016-Jun-28 16:34N 39°12' W 076°31'5 4.4
2016-Jun-28 15:31N 39°16' W 076°35'0 0.0
2016-Jun-28 14:33N 39°16' W 076°35'0 0.0
2016-Jun-28 13:33N 39°16' W 076°35'0 0.0
2016-Jun-28 12:34N 39°16' W 076°35'0 0.0
2016-Jun-28 11:34N 39°16' W 076°35'0 0.0
2016-Jun-28 10:33N 39°16' W 076°35'0 0.0
2016-Jun-28 09:33N 39°16' W 076°35'0 0.0
2016-Jun-28 08:33N 39°16' W 076°35'0 0.0
2016-Jun-28 07:33N 39°16' W 076°35'0 0.0
2016-Jun-28 06:34N 39°16' W 076°35'0 0.0
2016-Jun-28 04:33N 39°16' W 076°35'2 1.7
2016-Jun-28 03:33N 39°15' W 076°33'2 1.7
2016-Jun-28 02:33N 39°16' W 076°35'0 0.0
2016-Jun-28 01:34N 39°16' W 076°35'0 0.0
2016-Jun-28 00:34N 39°16' W 076°35'0 0.0
2016-Jun-27 23:33N 39°16' W 076°35'0 0.0
2016-Jun-27 22:34N 39°16' W 076°35'0 0.1
2016-Jun-27 21:34N 39°16' W 076°35'0 0.0
2016-Jun-27 20:33N 39°16' W 076°35'0 0.0
2016-Jun-27 19:33N 39°16' W 076°35'0 0.0
2016-Jun-27 18:34N 39°16' W 076°35'0 0.0
2016-Jun-27 17:34N 39°16' W 076°35'0 0.0
2016-Jun-27 16:34N 39°16' W 076°35'0 0.0
2016-Jun-27 15:34N 39°16' W 076°35'0 0.0
2016-Jun-27 14:33N 39°16' W 076°35'0 0.0
2016-Jun-27 13:33N 39°16' W 076°35'0 0.0
2016-Jun-27 12:34N 39°16' W 076°35'0 0.0
2016-Jun-27 11:33N 39°16' W 076°35'0 0.0
2016-Jun-27 10:34N 39°16' W 076°35'0 0.0
2016-Jun-27 09:34N 39°16' W 076°35'0 0.0
2016-Jun-27 08:33N 39°16' W 076°35'0 0.0
2016-Jun-27 07:34N 39°16' W 076°35'0 0.0
2016-Jun-27 06:34N 39°16' W 076°35'0 0.0
2016-Jun-27 05:33N 39°16' W 076°35'0 0.0
2016-Jun-27 04:34N 39°16' W 076°35'0 0.0
2016-Jun-27 03:34N 39°16' W 076°35'2 1.9
2016-Jun-27 02:33N 39°15' W 076°33'1 0.8
2016-Jun-27 01:33N 39°14' W 076°32'0 0.3
2016-Jun-27 00:34N 39°15' W 076°32'2 1.9
2016-Jun-26 23:33N 39°15' W 076°35'1 1.0
2016-Jun-26 22:30N 39°16' W 076°35'0 0.0
2016-Jun-26 21:33N 39°16' W 076°35'0 0.0
2016-Jun-26 20:30N 39°16' W 076°35'0 0.0
2016-Jun-26 19:30N 39°16' W 076°35'0 0.0
2016-Jun-26 18:30N 39°16' W 076°35'0 0.0
2016-Jun-26 16:20N 39°16' W 076°35'0 0.0
2016-Jun-26 15:30N 39°16' W 076°35'0 0.0
2016-Jun-26 14:20N 39°16' W 076°35'0 0.0
2016-Jun-26 13:33N 39°16' W 076°35'1 1.0
2016-Jun-26 12:34N 39°15' W 076°35'3 2.6
2016-Jun-26 11:32N 39°13' W 076°32'4 3.6
2016-Jun-26 10:33N 39°16' W 076°35'0 0.0
2016-Jun-26 09:33N 39°16' W 076°35'0 0.0
2016-Jun-26 08:33N 39°16' W 076°35'0 0.0
2016-Jun-26 07:33N 39°16' W 076°35'0 0.0
2016-Jun-26 06:33N 39°16' W 076°35'0 0.0
2016-Jun-26 05:33N 39°16' W 076°35'0 0.0
2016-Jun-26 04:33N 39°16' W 076°35'0 0.0
2016-Jun-26 03:32N 39°16' W 076°35'0 0.0
2016-Jun-26 02:31N 39°16' W 076°35'0 0.0
2016-Jun-26 01:31N 39°16' W 076°35'0 0.0
2016-Jun-26 00:30N 39°16' W 076°35'0 0.0
2016-Jun-25 23:30N 39°16' W 076°35'6 6.8
2016-Jun-25 22:34N 39°12' W 076°29'3 3.1
2016-Jun-25 21:34N 39°14' W 076°32'3 3.1
2016-Jun-25 20:30N 39°16' W 076°35'0 0.0
2016-Jun-25 19:30N 39°16' W 076°35'0 0.0
2016-Jun-25 18:30N 39°16' W 076°35'0 0.0
2016-Jun-25 17:25N 39°16' W 076°35'0 0.0
2016-Jun-25 16:30N 39°16' W 076°35'0 0.0
2016-Jun-25 14:30N 39°16' W 076°35'0 0.0
2016-Jun-25 13:30N 39°16' W 076°35'0 0.0
2016-Jun-25 12:26N 39°16' W 076°35'0 0.0
2016-Jun-25 11:33N 39°16' W 076°35'0 0.0
2016-Jun-25 10:30N 39°16' W 076°35'0 0.0
2016-Jun-25 09:33N 39°16' W 076°35'1 1.0
2016-Jun-25 08:33N 39°15' W 076°34'1 1.0
2016-Jun-25 07:30N 39°16' W 076°35'0 0.0
2016-Jun-25 06:30N 39°16' W 076°35'0 0.0
2016-Jun-25 05:33N 39°16' W 076°35'0 0.0
2016-Jun-25 04:33N 39°16' W 076°35'0 0.0
2016-Jun-25 03:32N 39°16' W 076°35'0 0.0
2016-Jun-25 02:30N 39°16' W 076°35'0 0.0
2016-Jun-25 01:26N 39°16' W 076°35'2 2.1
2016-Jun-25 00:33N 39°15' W 076°34'2 1.7
2016-Jun-24 23:30N 39°16' W 076°35'0 0.0
2016-Jun-24 22:30N 39°16' W 076°35'0 0.0
2016-Jun-24 21:30N 39°16' W 076°35'0 0.0
2016-Jun-24 20:30N 39°16' W 076°35'0 0.0
2016-Jun-24 19:31N 39°16' W 076°35'4 4.0
2016-Jun-24 18:33N 39°13' W 076°32'4 3.8
2016-Jun-24 17:33N 39°16' W 076°35'0 0.0
2016-Jun-24 16:25N 39°16' W 076°35'0 0.0
2016-Jun-24 15:25N 39°16' W 076°35'0 0.0
2016-Jun-24 14:25N 39°16' W 076°35'0 0.0
2016-Jun-24 13:30N 39°16' W 076°35'0 0.0
2016-Jun-24 12:30N 39°16' W 076°35'4 4.0
2016-Jun-24 11:33N 39°13' W 076°32'3 2.6
2016-Jun-24 10:34N 39°12' W 076°29'6 6.3
2016-Jun-24 09:33N 39°16' W 076°35'0 0.0
2016-Jun-24 08:34N 39°16' W 076°35'0 0.0
2016-Jun-24 07:34N 39°16' W 076°35'0 0.0
2016-Jun-24 04:20N 39°16' W 076°35'0 0.0
2016-Jun-24 03:29N 39°16' W 076°35'0 0.0
2016-Jun-24 02:33N 39°16' W 076°35'0 0.0
2016-Jun-24 01:33N 39°16' W 076°35'0 0.0
2016-Jun-24 00:34N 39°16' W 076°35'1 0.8
2016-Jun-23 23:33N 39°17' W 076°36'0 0.2
2016-Jun-23 22:34N 39°16' W 076°36'0 0.0
2016-Jun-23 21:34N 39°16' W 076°36'0 0.0
2016-Jun-23 20:33N 39°16' W 076°36'0 0.0
2016-Jun-23 19:33N 39°16' W 076°36'0 0.0
2016-Jun-23 18:34N 39°16' W 076°36'0 0.0
2016-Jun-23 17:33N 39°16' W 076°36'0 0.0
2016-Jun-23 16:34N 39°16' W 076°36'0 0.0
2016-Jun-23 15:33N 39°16' W 076°36'0 0.0
2016-Jun-23 14:34N 39°16' W 076°36'0 0.0
2016-Jun-23 13:34N 39°16' W 076°36'0 0.0
2016-Jun-23 12:34N 39°16' W 076°36'1 0.9
2016-Jun-23 11:31N 39°16' W 076°35'4 3.8
2016-Jun-23 10:33N 39°13' W 076°35'1 1.2
2016-Jun-23 09:31N 39°13' W 076°34'1 1.5
2016-Jun-23 08:33N 39°13' W 076°32'3 3.5
2016-Jun-23 07:34N 39°16' W 076°34'1 0.3
2016-Jun-23 05:23N 39°16' W 076°35'0 0.0
2016-Jun-23 04:33N 39°16' W 076°35'0 0.0
2016-Jun-23 03:34N 39°16' W 076°35'0 0.0
2016-Jun-23 02:33N 39°16' W 076°35'0 0.0
2016-Jun-23 01:33N 39°16' W 076°35'0 0.0
2016-Jun-23 00:34N 39°16' W 076°35'0 0.0
2016-Jun-22 23:33N 39°16' W 076°35'0 0.0
2016-Jun-22 22:31N 39°16' W 076°35'0 0.0
2016-Jun-22 21:23N 39°16' W 076°35'0 0.0
2016-Jun-22 20:33N 39°16' W 076°35'0 0.0
2016-Jun-22 19:33N 39°16' W 076°35'0 0.0
2016-Jun-22 18:33N 39°16' W 076°35'0 0.0
2016-Jun-22 17:32N 39°16' W 076°35'0 0.0
2016-Jun-22 16:30N 39°16' W 076°35'0 0.0
2016-Jun-22 15:31N 39°16' W 076°35'0 0.0
2016-Jun-22 14:30N 39°16' W 076°35'0 0.0
2016-Jun-22 13:33N 39°16' W 076°35'1 0.9
2016-Jun-22 12:33N 39°16' W 076°36'1 0.9
2016-Jun-22 11:33N 39°16' W 076°35'0 0.0
2016-Jun-22 10:33N 39°16' W 076°35'0 0.0
2016-Jun-22 09:33N 39°16' W 076°35'0 0.0
2016-Jun-22 08:33N 39°16' W 076°35'0 0.0
2016-Jun-22 07:33N 39°16' W 076°35'0 0.0
2016-Jun-22 06:33N 39°16' W 076°35'0 0.0
2016-Jun-22 05:33N 39°16' W 076°35'0 0.0
2016-Jun-22 04:33N 39°16' W 076°35'0 0.0
2016-Jun-22 03:33N 39°16' W 076°35'0 0.0
2016-Jun-22 02:33N 39°16' W 076°35'1 1.3
2016-Jun-22 01:31N 39°15' W 076°33'0 0.2
2016-Jun-22 00:08N 39°15' W 076°33'0 0.0
2016-Jun-21 23:34N 39°15' W 076°33'1 0.7
2016-Jun-21 22:30N 39°15' W 076°34'2 1.8
2016-Jun-21 21:33N 39°16' W 076°35'  

Dump ship's entire track history